Terminal Aerodrome Forecast
Issued by NWS Wilmington, NC

Home | Current Version | Previous Version | Text Only | Print | Product List | Glossary On
Versions: 1 2 3 4 5 6 7 8 9 10 11 12 13 14 15 16 17 18 19 20 21 22 23
000
FTUS42 KILM 192326
TAFILM
TAF
KILM 192326Z 2000/2024 14010G18KT P6SM -RA SCT008 OVC025
      TEMPO 2000/2004 P6SM -TSRA BKN015CB
     FM200600 19010KT P6SM OVC025
      TEMPO 2006/2009 5SM -TSRA BKN025CB
     FM201200 23012KT P6SM OVC012
     FM201800 21014KT P6SM BKN250=

USA.gov is the U.S. government's official web portal to all federal, state and local government web resources and services.